Time;durP1;ratioP1;P1;durP2;ratioP2;P2;SDS_P1;SDS_P2;PMS_P1;PMS_P2;Temp;Humidity;BMP_temperature;BMP_pressure;BME280_temperature;BME280_humidity;BME280_pressure;Samples;Min_cycle;Max_cycle;Signal;HPM_P1;HPM_P2
2022/05/19 00:01:46;;;;;;;37.97;30.85;;;;;;;15.30;100.00;101928.47;5027238;28;20045;-80
2022/05/19 00:04:15;;;;;;;45.95;30.58;;;;;;;15.29;100.00;101929.38;5005075;28;20045;-80
2022/05/19 00:06:43;;;;;;;41.80;30.27;;;;;;;15.28;100.00;101916.09;4984445;28;20263;-80
2022/05/19 00:09:12;;;;;;;36.95;28.88;;;;;;;15.28;100.00;101913.44;5001779;28;20049;-80
2022/05/19 00:11:42;;;;;;;41.00;31.02;;;;;;;15.27;100.00;101909.88;5002432;28;20117;-80
2022/05/19 00:14:12;;;;;;;36.80;29.63;;;;;;;15.27;100.00;101920.50;4989979;28;20053;-80
2022/05/19 00:16:41;;;;;;;37.10;31.27;;;;;;;15.26;100.00;101920.53;4985548;28;20049;-80
2022/05/19 00:19:10;;;;;;;40.83;30.50;;;;;;;15.27;100.00;101922.28;4975732;28;20390;-80
2022/05/19 00:21:39;;;;;;;41.63;31.77;;;;;;;15.27;100.00;101922.28;5000925;28;20684;-80
2022/05/19 00:24:09;;;;;;;41.92;29.83;;;;;;;15.29;100.00;101912.53;4990228;28;20042;-80
2022/05/19 00:26:37;;;;;;;36.72;29.45;;;;;;;15.31;100.00;101916.09;5004926;28;20069;-80
2022/05/19 00:29:06;;;;;;;38.92;30.27;;;;;;;15.33;100.00;101917.88;4971513;28;20051;-81
2022/05/19 00:31:35;;;;;;;43.10;30.98;;;;;;;15.33;100.00;101916.97;4988625;28;20042;-80
2022/05/19 00:34:04;;;;;;;43.80;30.52;;;;;;;15.35;100.00;101912.56;5007613;28;20053;-80
2022/05/19 00:36:34;;;;;;;41.80;31.70;;;;;;;15.34;100.00;101911.66;4980100;28;20045;-80
2022/05/19 00:39:04;;;;;;;44.28;32.60;;;;;;;15.33;100.00;101915.22;5023661;28;20045;-80
2022/05/19 00:41:33;;;;;;;46.47;33.53;;;;;;;15.34;100.00;101911.66;4992138;28;20504;-80
2022/05/19 00:44:05;;;;;;;43.90;31.75;;;;;;;15.34;100.00;101914.31;4976529;28;20049;-81
2022/05/19 00:46:43;;;;;;;39.50;32.75;;;;;;;15.35;100.00;101913.44;4982232;28;20046;-82
2022/05/19 00:49:23;;;;;;;44.78;33.22;;;;;;;15.35;100.00;101901.94;5001216;28;20069;-79
2022/05/19 00:52:00;;;;;;;44.25;35.80;;;;;;;15.34;100.00;101897.50;4987133;28;20084;-79
2022/05/19 00:54:36;;;;;;;48.65;39.15;;;;;;;15.34;100.00;101894.84;4975374;28;20057;-81
2022/05/19 00:57:10;;;;;;;49.28;35.67;;;;;;;15.31;100.00;101889.53;4991886;28;20050;-79
2022/05/19 00:59:50;;;;;;;43.15;35.00;;;;;;;15.28;100.00;101903.69;4992312;28;20459;-80
2022/05/19 01:02:24;;;;;;;45.13;35.03;;;;;;;15.28;100.00;101902.81;4999720;28;20061;-77
2022/05/19 01:05:34;;;;;;;39.65;31.88;;;;;;;15.28;100.00;101892.19;4990757;28;20068;-77
2022/05/19 01:08:20;;;;;;;50.28;37.40;;;;;;;15.28;100.00;101894.84;5012348;28;20145;-77
2022/05/19 01:10:51;;;;;;;40.28;33.60;;;;;;;15.26;100.00;101884.22;5006580;28;20057;-77
2022/05/19 01:13:20;;;;;;;37.90;31.38;;;;;;;15.25;100.00;101879.78;4990608;28;20050;-78
2022/05/19 01:15:52;;;;;;;41.88;34.10;;;;;;;15.25;100.00;101873.59;4998923;28;20196;-78
2022/05/19 01:18:25;;;;;;;44.00;33.75;;;;;;;15.23;100.00;101867.41;4988441;28;20042;-78
2022/05/19 01:20:55;;;;;;;44.30;33.05;;;;;;;15.20;100.00;101866.53;4973320;28;20440;-77
2022/05/19 01:23:37;;;;;;;43.63;32.72;;;;;;;15.19;100.00;101859.44;4957249;28;20049;-77
2022/05/19 01:26:29;;;;;;;41.97;32.40;;;;;;;15.18;100.00;101867.41;4990678;28;20047;-77
2022/05/19 01:28:58;;;;;;;41.90;33.55;;;;;;;15.15;100.00;101862.09;4987709;28;20081;-79
2022/05/19 01:31:50;;;;;;;37.72;30.90;;;;;;;15.14;100.00;101870.94;5005686;28;20046;-77
2022/05/19 01:34:23;;;;;;;37.10;29.52;;;;;;;15.14;100.00;101868.28;4976145;28;20042;-77
2022/05/19 01:36:52;;;;;;;37.67;29.20;;;;;;;15.15;100.00;101868.28;4978220;28;20684;-77
2022/05/19 01:39:30;;;;;;;36.15;29.17;;;;;;;15.17;100.00;101871.81;4993002;28;20043;-78
2022/05/19 01:42:26;;;;;;;37.22;28.63;;;;;;;15.19;100.00;101870.06;5001720;28;20045;-77
2022/05/19 01:45:34;;;;;;;45.00;34.65;;;;;;;15.25;100.00;101868.28;5004241;28;20423;-77
2022/05/19 01:48:39;;;;;;;43.70;31.10;;;;;;;15.26;100.00;101864.75;4988662;28;20492;-77
2022/05/19 01:51:30;;;;;;;39.50;30.10;;;;;;;15.27;100.00;101869.19;4989320;28;20046;-78
2022/05/19 01:54:07;;;;;;;;;;;;;;;15.26;100.00;101868.28;5004779;28;20050;-78
2022/05/19 01:56:43;;;;;;;41.40;28.98;;;;;;;15.27;100.00;101863.88;4992824;28;19922;-78
2022/05/19 01:59:12;;;;;;;48.20;34.47;;;;;;;15.27;100.00;101853.25;4990734;28;20427;-78
2022/05/19 02:01:46;;;;;;;45.83;33.40;;;;;;;15.30;100.00;101855.91;4974556;28;20307;-78
2022/05/19 02:04:31;;;;;;;49.33;36.42;;;;;;;15.29;100.00;101848.81;4987565;28;20046;-78
2022/05/19 02:07:04;;;;;;;52.88;39.00;;;;;;;15.29;100.00;101848.81;5000443;28;20041;-78
2022/05/19 02:09:37;;;;;;;56.08;39.33;;;;;;;15.28;100.00;101841.75;4982319;28;20056;-79
2022/05/19 02:12:08;;;;;;;53.05;39.13;;;;;;;15.28;100.00;101841.75;5006498;28;20046;-78
2022/05/19 02:14:52;;;;;;;58.95;46.45;;;;;;;15.28;100.00;101839.97;5023543;28;20045;-79
2022/05/19 02:17:25;;;;;;;59.28;45.67;;;;;;;15.28;100.00;101833.78;4978880;28;20050;-77
2022/05/19 02:19:57;;;;;;;60.30;47.05;;;;;;;15.27;100.00;101816.94;5001542;28;20053;-77
2022/05/19 02:22:33;;;;;;;64.43;48.60;;;;;;;15.27;100.00;101824.91;4988495;28;20057;-77
2022/05/19 02:25:27;;;;;;;65.13;49.97;;;;;;;15.26;100.00;101822.28;4978318;28;20029;-77
2022/05/19 02:28:11;;;;;;;69.78;52.08;;;;;;;15.26;100.00;101817.84;4986575;28;20069;-78
2022/05/19 02:30:41;;;;;;;71.90;52.83;;;;;;;15.28;100.00;101815.19;4994227;28;20057;-78
2022/05/19 02:33:17;;;;;;;70.68;54.33;;;;;;;15.30;100.00;101822.25;5017547;28;20042;-77
2022/05/19 02:35:47;;;;;;;72.50;53.13;;;;;;;15.32;100.00;101807.22;5000059;28;20953;-77
2022/05/19 02:38:17;;;;;;;78.35;55.83;;;;;;;15.35;100.00;101816.97;4998380;28;20058;-77
2022/05/19 02:40:47;;;;;;;81.15;56.47;;;;;;;15.34;100.00;101808.09;4961467;28;20069;-77
2022/05/19 02:43:17;;;;;;;72.88;54.20;;;;;;;15.35;100.00;101817.84;4968229;28;20069;-77
2022/05/19 02:45:47;;;;;;;79.05;60.20;;;;;;;15.36;100.00;101808.97;4954818;28;20378;-77
2022/05/19 02:48:17;;;;;;;83.23;59.77;;;;;;;15.38;100.00;101793.03;4979736;28;20039;-77
2022/05/19 02:50:47;;;;;;;65.90;51.00;;;;;;;15.38;100.00;101798.34;4969017;28;20286;-77
2022/05/19 02:53:16;;;;;;;;;;;;;;;15.39;100.00;101797.47;4983933;28;20046;-77
2022/05/19 02:55:45;;;;;;;74.47;54.63;;;;;;;15.39;100.00;101798.34;4951151;28;20124;-77
2022/05/19 02:58:15;;;;;;;72.13;54.58;;;;;;;15.42;100.00;101791.25;4986605;28;20400;-77
2022/05/19 03:00:46;;;;;;;76.22;55.45;;;;;;;15.44;100.00;101786.84;4975086;28;20073;-78
2022/05/19 03:03:15;;;;;;;79.75;61.17;;;;;;;15.47;100.00;101789.50;4967474;28;20453;-78
2022/05/19 03:05:44;;;;;;;76.18;57.05;;;;;;;15.48;100.00;101789.50;4964533;28;20253;-78
2022/05/19 03:08:13;;;;;;;88.72;55.10;;;;;;;15.50;100.00;101781.50;4976970;28;20069;-79
2022/05/19 03:10:43;;;;;;;82.82;58.85;;;;;;;15.51;100.00;101785.94;4940519;28;20039;-77
2022/05/19 03:13:19;;;;;;;;;;;;;;;15.51;100.00;101784.16;4966818;28;20500;-78
2022/05/19 03:15:48;;;;;;;86.50;56.88;;;;;;;15.53;100.00;101781.50;4968138;28;20029;-78
2022/05/19 03:18:16;;;;;;;90.57;65.13;;;;;;;15.54;100.00;101777.97;4951239;28;20078;-78
2022/05/19 03:20:48;;;;;;;92.78;64.63;;;;;;;15.55;100.00;101777.94;4965311;28;20468;-78
2022/05/19 03:23:16;;;;;;;95.68;64.63;;;;;;;15.57;100.00;101778.81;4974625;28;20054;-78
2022/05/19 03:25:45;;;;;;;94.15;65.15;;;;;;;15.59;100.00;101774.41;4942691;28;20160;-78
2022/05/19 03:28:15;;;;;;;88.07;61.65;;;;;;;15.60;100.00;101775.28;4980823;28;20046;-78
2022/05/19 03:30:43;;;;;;;81.95;61.40;;;;;;;15.62;100.00;101781.47;4958429;28;20273;-78
2022/05/19 03:33:12;;;;;;;92.35;63.33;;;;;;;15.63;100.00;101780.56;4965084;28;20046;-77
2022/05/19 03:35:42;;;;;;;91.63;62.72;;;;;;;15.65;100.00;101776.16;4960609;28;20252;-77
2022/05/19 03:38:11;;;;;;;93.70;65.53;;;;;;;15.67;100.00;101786.75;4982560;28;20047;-77
2022/05/19 03:40:39;;;;;;;88.50;64.00;;;;;;;15.67;100.00;101774.38;4970198;28;20532;-78
2022/05/19 03:43:08;;;;;;;78.68;61.03;;;;;;;15.70;100.00;101776.16;4965196;28;20049;-78
2022/05/19 03:45:43;;;;;;;85.53;64.43;;;;;;;15.71;100.00;101772.63;4959907;28;23524;-78
2022/05/19 03:48:14;;;;;;;87.85;62.25;;;;;;;15.72;100.00;101775.25;4984630;28;20054;-77
2022/05/19 03:50:45;;;;;;;79.43;59.92;;;;;;;15.74;100.00;101776.16;4961007;28;20200;-78
2022/05/19 03:53:13;;;;;;;80.32;60.15;;;;;;;15.76;100.00;101778.81;4972144;28;20053;-78
2022/05/19 03:55:42;;;;;;;81.50;57.63;;;;;;;15.77;100.00;101773.50;4950653;28;20554;-77
2022/05/19 03:58:11;;;;;;;87.50;59.40;;;;;;;15.81;100.00;101762.88;4985174;28;20050;-78
2022/05/19 04:00:39;;;;;;;80.18;55.72;;;;;;;15.82;100.00;101764.59;4967911;28;20047;-78
2022/05/19 04:03:08;;;;;;;75.38;55.00;;;;;;;15.82;100.00;101762.81;4952556;28;20518;-77
2022/05/19 04:05:36;;;;;;;69.75;54.28;;;;;;;15.84;100.00;101761.06;4978814;28;20050;-78
2022/05/19 04:08:05;;;;;;;81.15;55.20;;;;;;;15.87;100.00;101762.81;4959099;28;20404;-78
2022/05/19 04:10:33;;;;;;;72.75;52.05;;;;;;;15.89;100.00;101763.69;4946072;28;20591;-78
2022/05/19 04:13:02;;;;;;;71.70;50.97;;;;;;;15.89;100.00;101751.28;4966213;28;20054;-77
2022/05/19 04:15:30;;;;;;;73.43;52.80;;;;;;;15.93;100.00;101749.50;4947111;28;20050;-78
2022/05/19 04:17:59;;;;;;;70.85;49.85;;;;;;;15.94;100.00;101744.19;4970605;28;20050;-78
2022/05/19 04:20:30;;;;;;;67.78;51.25;;;;;;;15.97;100.00;101744.19;4967437;28;20051;-78
2022/05/19 04:23:00;;;;;;;69.15;50.53;;;;;;;16.01;100.00;101752.13;4985061;28;20042;-78
2022/05/19 04:25:29;;;;;;;67.25;51.78;;;;;;;16.04;100.00;101753.00;4980367;28;20054;-78
2022/05/19 04:27:58;;;;;;;69.78;52.85;;;;;;;16.08;100.00;101751.22;4959920;28;20042;-78
2022/05/19 04:30:26;;;;;;;63.55;50.72;;;;;;;16.11;100.00;101746.75;4967819;28;20376;-77
2022/05/19 04:32:58;;;;;;;62.90;49.95;;;;;;;16.14;100.00;101744.09;4961824;28;20267;-77
2022/05/19 04:35:26;;;;;;;66.15;50.28;;;;;;;16.16;100.00;101733.44;4979960;28;20047;-77
2022/05/19 04:38:06;;;;;;;66.90;50.50;;;;;;;16.20;100.00;101736.94;4954609;28;20049;-77
2022/05/19 04:40:37;;;;;;;67.68;49.40;;;;;;;16.24;100.00;101731.63;4959977;28;20046;-77
2022/05/19 04:43:12;;;;;;;62.63;48.13;;;;;;;16.29;100.00;101729.78;4950340;28;20417;-78
2022/05/19 04:45:41;;;;;;;56.38;45.00;;;;;;;16.37;100.00;101733.31;4969931;28;20047;-77
2022/05/19 04:48:09;;;;;;;57.30;45.55;;;;;;;16.57;100.00;101730.50;4968758;28;20050;-78
2022/05/19 04:50:37;;;;;;;50.38;42.20;;;;;;;16.73;100.00;101728.59;4981748;28;20042;-77
2022/05/19 04:53:05;;;;;;;48.47;40.75;;;;;;;16.85;100.00;101726.78;4976614;28;20053;-78
2022/05/19 04:55:36;;;;;;;46.20;36.60;;;;;;;16.91;100.00;101729.38;4968324;28;20510;-77
2022/05/19 04:58:06;;;;;;;46.13;38.25;;;;;;;16.98;100.00;101719.56;4941908;28;20378;-77
2022/05/19 05:00:36;;;;;;;48.55;37.03;;;;;;;17.01;100.00;101716.84;4966110;28;20065;-78
2022/05/19 05:03:06;;;;;;;44.65;34.30;;;;;;;17.11;100.00;101711.44;4923992;28;20916;-78
2022/05/19 05:05:35;;;;;;;45.13;33.90;;;;;;;17.25;100.00;101703.28;4965718;28;20039;-78
2022/05/19 05:08:04;;;;;;;44.42;35.05;;;;;;;17.36;100.00;101715.63;4962729;28;20047;-78
2022/05/19 05:10:32;;;;;;;41.50;32.80;;;;;;;17.39;100.00;101713.81;4953326;28;20046;-78
2022/05/19 05:13:06;;;;;;;39.85;33.00;;;;;;;17.44;100.00;101716.41;4958660;28;20079;-78
2022/05/19 05:15:35;;;;;;;38.88;31.58;;;;;;;17.49;100.00;101712.78;4954125;28;20046;-78
2022/05/19 05:18:05;;;;;;;40.97;33.08;;;;;;;17.57;100.00;101715.34;4944392;28;20039;-78
2022/05/19 05:20:36;;;;;;;38.55;33.03;;;;;;;17.63;100.00;101733.94;4969961;28;20034;-78
2022/05/19 05:23:06;;;;;;;47.60;33.47;;;;;;;17.74;100.00;101723.13;4961241;28;20749;-78
2022/05/19 05:25:35;;;;;;;41.95;32.25;;;;;;;17.82;100.00;101720.38;4963686;28;20054;-78
2022/05/19 05:28:04;;;;;;;39.40;31.33;;;;;;;17.86;100.00;101733.69;4951061;28;20047;-78
2022/05/19 05:30:33;;;;;;;45.58;34.53;;;;;;;17.92;100.00;101736.28;4927288;28;20436;-78
2022/05/19 05:33:06;;;;;;;40.58;34.60;;;;;;;18.04;100.00;101731.69;4996149;28;20039;-78
2022/05/19 05:35:36;;;;;;;47.20;33.85;;;;;;;18.25;100.00;101735.81;4989483;28;20061;-78
2022/05/19 05:38:05;;;;;;;44.60;33.17;;;;;;;18.56;100.00;101736.22;4964762;28;20192;-78
2022/05/19 05:40:35;;;;;;;36.33;30.37;;;;;;;18.89;100.00;101753.53;4974270;28;20038;-78
2022/05/19 05:43:06;;;;;;;42.25;31.42;;;;;;;19.24;100.00;101748.44;4979991;28;20244;-77
2022/05/19 05:45:35;;;;;;;34.08;30.38;;;;;;;19.51;100.00;101755.06;4919083;28;20046;-77
2022/05/19 05:48:04;;;;;;;38.47;31.38;;;;;;;19.75;100.00;101761.72;4976693;28;20039;-80
2022/05/19 05:50:33;;;;;;;38.08;30.40;;;;;;;20.02;100.00;101788.84;4964027;28;20677;-78
2022/05/19 05:53:02;;;;;;;36.45;30.42;;;;;;;20.29;100.00;101792.72;4963367;28;20046;-78
2022/05/19 05:55:32;;;;;;;34.88;31.17;;;;;;;20.44;100.00;101794.16;4968899;28;20039;-78
2022/05/19 05:58:05;;;;;;;35.60;30.23;;;;;;;20.50;100.00;101807.41;4935999;28;20705;-78
2022/05/19 06:00:32;;;;;;;38.67;30.92;;;;;;;20.44;100.00;101815.56;4956318;28;20042;-78
2022/05/19 06:03:01;;;;;;;38.75;30.75;;;;;;;20.34;100.00;101822.94;4964218;28;20699;-79
2022/05/19 06:05:30;;;;;;;39.55;31.95;;;;;;;20.24;100.00;101819.59;4959140;28;20485;-78
2022/05/19 06:07:58;;;;;;;40.75;30.35;;;;;;;20.22;100.00;101825.88;4943473;28;20070;-78
2022/05/19 06:10:30;;;;;;;38.78;34.00;;;;;;;20.23;100.00;101833.00;4974436;28;20047;-79
2022/05/19 06:12:58;;;;;;;38.83;32.33;;;;;;;20.28;100.00;101843.59;4985736;28;20263;-80
2022/05/19 06:15:27;;;;;;;37.30;31.20;;;;;;;20.24;100.00;101827.63;4970660;28;20034;-78
2022/05/19 06:17:56;;;;;;;34.50;29.80;;;;;;;20.20;100.00;101836.59;4948658;28;20038;-79
2022/05/19 06:20:25;;;;;;;36.55;29.75;;;;;;;20.18;100.00;101825.03;4969991;28;20038;-79
2022/05/19 06:22:53;;;;;;;33.97;27.63;;;;;;;20.22;100.00;101826.72;4951250;28;20251;-79
2022/05/19 06:25:23;;;;;;;33.17;27.23;;;;;;;20.29;100.00;101826.63;4986508;28;20526;-79
2022/05/19 06:27:52;;;;;;;35.05;26.88;;;;;;;20.33;100.00;101820.28;4949798;28;20042;-79
2022/05/19 06:30:22;;;;;;;34.35;26.08;;;;;;;20.34;100.00;101822.94;4958595;28;20043;-79
2022/05/19 06:32:50;;;;;;;35.80;27.38;;;;;;;20.36;100.00;101804.13;4941415;28;21670;-79
2022/05/19 06:35:22;;;;;;;29.02;25.10;;;;;;;20.33;100.00;101801.56;4947231;28;20043;-80
2022/05/19 06:37:51;;;;;;;29.60;25.25;;;;;;;20.29;100.00;101805.22;4983557;28;20146;-79
2022/05/19 06:40:21;;;;;;;27.38;23.05;;;;;;;20.23;100.00;101801.75;4967131;28;20054;-80
2022/05/19 06:42:51;;;;;;;28.27;22.55;;;;;;;20.13;100.00;101816.25;4971540;28;20532;-79
2022/05/19 06:45:23;;;;;;;27.42;21.25;;;;;;;20.05;100.00;101821.75;4972342;28;20518;-80
2022/05/19 06:47:53;;;;;;;26.10;23.30;;;;;;;19.99;100.00;101821.88;4958087;28;20185;-78
2022/05/19 06:50:22;;;;;;;29.00;22.63;;;;;;;19.95;100.00;101822.84;4985857;28;20034;-79
2022/05/19 06:52:59;;;;;;;29.50;21.55;;;;;;;19.92;100.00;101819.38;4969309;28;20050;-80
2022/05/19 06:55:30;;;;;;;26.45;21.45;;;;;;;19.91;100.00;101805.13;4952595;28;20042;-80
2022/05/19 06:57:59;;;;;;;24.08;18.98;;;;;;;19.94;100.00;101794.34;4971124;28;20380;-80
2022/05/19 07:00:29;;;;;;;20.73;15.38;;;;;;;20.00;100.00;101790.66;4961478;28;20043;-80
2022/05/19 07:03:00;;;;;;;17.95;16.05;;;;;;;20.08;100.00;101783.34;4956050;28;20534;-79
2022/05/19 07:05:32;;;;;;;20.88;15.20;;;;;;;20.14;100.00;101791.25;4985046;28;20050;-79
2022/05/19 07:08:00;;;;;;;21.42;17.38;;;;;;;20.23;100.00;101795.53;4984422;28;20039;-80
2022/05/19 07:10:29;;;;;;;19.98;17.75;;;;;;;20.27;100.00;101783.84;4965313;28;20045;-79
2022/05/19 07:12:59;;;;;;;21.08;18.05;;;;;;;20.33;100.00;101796.19;4973510;28;20046;-79
2022/05/19 07:15:28;;;;;;;;;;;;;;;20.30;100.00;101786.41;4964235;28;20049;-78
2022/05/19 07:17:56;;;;;;;20.73;17.80;;;;;;;20.19;100.00;101784.00;4938075;28;21057;-79
2022/05/19 07:23:21;;;;;;;25.55;19.13;;;;;;;20.03;100.00;101802.16;4969491;28;20039;-80
2022/05/19 07:25:50;;;;;;;22.20;19.88;;;;;;;19.96;100.00;101807.69;4972968;28;20432;-79
2022/05/19 07:28:20;;;;;;;22.55;20.05;;;;;;;19.85;100.00;101806.13;4991293;28;20059;-80
2022/05/19 07:30:49;;;;;;;23.98;20.17;;;;;;;19.74;100.00;101780.50;4960722;28;20247;-79
2022/05/19 07:33:21;;;;;;;26.05;20.23;;;;;;;19.62;100.00;101781.56;4960566;28;20030;-81
2022/05/19 07:35:50;;;;;;;29.35;21.83;;;;;;;19.46;100.00;101787.22;4977291;28;20168;-79
2022/05/19 07:38:19;;;;;;;27.80;21.75;;;;;;;19.36;100.00;101807.03;4950439;28;20050;-79
2022/05/19 07:40:49;;;;;;;28.63;21.77;;;;;;;19.27;100.00;101826.78;4949183;28;20249;-78
2022/05/19 07:43:36;;;;;;;27.02;21.63;;;;;;;19.18;100.00;101834.06;4968823;28;20050;-78
2022/05/19 07:46:06;;;;;;;29.73;21.00;;;;;;;18.99;100.00;101823.69;4979863;28;20120;-78
2022/05/19 07:48:38;;;;;;;26.95;20.23;;;;;;;18.87;100.00;101827.44;4953782;28;20064;-79
2022/05/19 07:51:07;;;;;;;22.60;19.38;;;;;;;18.79;100.00;101828.41;4990332;28;20374;-79
2022/05/19 07:53:36;;;;;;;26.98;19.02;;;;;;;18.72;100.00;101837.44;4963449;28;20047;-79
2022/05/19 07:56:04;;;;;;;24.70;18.05;;;;;;;18.62;100.00;101831.34;4965018;28;20043;-78
2022/05/19 07:58:33;;;;;;;29.98;19.98;;;;;;;18.57;100.00;101817.19;4958743;28;20051;-79
2022/05/19 08:01:02;;;;;;;28.73;19.05;;;;;;;18.49;100.00;101801.31;4971866;28;20038;-78
2022/05/19 08:03:30;;;;;;;30.20;18.27;;;;;;;18.43;100.00;101801.38;4935938;28;20077;-79
2022/05/19 08:06:00;;;;;;;27.45;18.42;;;;;;;18.39;100.00;101821.00;4979791;28;20046;-80
2022/05/19 08:08:28;;;;;;;22.90;17.65;;;;;;;18.41;100.00;101821.84;4961845;28;20046;-81
2022/05/19 08:10:57;;;;;;;28.73;16.67;;;;;;;18.45;100.00;101828.91;4938487;28;20089;-80
2022/05/19 08:16:12;;;;;;;21.67;13.43;;;;;;;18.56;100.00;101831.44;4986456;28;20039;-79
2022/05/19 08:18:41;;;;;;;22.98;12.95;;;;;;;18.57;100.00;101844.78;4978159;28;20047;-80
2022/05/19 08:21:11;;;;;;;20.92;11.20;;;;;;;18.58;100.00;101857.22;4960636;28;20038;-78
2022/05/19 08:23:43;;;;;;;25.73;11.77;;;;;;;18.58;100.00;101851.88;4981617;28;20073;-78
2022/05/19 08:26:12;;;;;;;20.75;10.70;;;;;;;18.56;100.00;101848.31;4982009;28;20057;-78
2022/05/19 08:28:48;;;;;;;24.90;10.90;;;;;;;18.56;100.00;101845.66;4942950;28;20046;-79
2022/05/19 08:31:24;;;;;;;18.17;10.32;;;;;;;18.53;100.00;101851.06;4977935;28;20372;-79
2022/05/19 08:33:54;;;;;;;19.88;10.02;;;;;;;18.49;100.00;101831.53;4965595;28;20054;-79
2022/05/19 08:36:25;;;;;;;21.77;11.27;;;;;;;18.45;100.00;101828.91;4939644;28;20038;-78
2022/05/19 08:38:54;;;;;;;;;;;;;;;18.43;100.00;101836.06;4966724;28;20714;-78
2022/05/19 08:41:36;;;;;;;25.65;11.25;;;;;;;18.40;100.00;101841.47;4954918;28;19922;-78
2022/05/19 08:44:26;;;;;;;28.73;11.90;;;;;;;18.42;100.00;101845.84;4970404;28;20042;-78
2022/05/19 08:46:57;;;;;;;29.80;10.82;;;;;;;18.42;100.00;101843.19;4983784;28;20042;-78
2022/05/19 08:49:44;;;;;;;24.35;11.55;;;;;;;18.45;100.00;101824.47;4973134;28;20058;-78
2022/05/19 08:52:15;;;;;;;20.10;10.32;;;;;;;18.52;100.00;101841.28;4947227;28;20033;-78
2022/05/19 08:54:47;;;;;;;25.90;10.68;;;;;;;18.58;100.00;101841.22;4988619;28;20534;-78
2022/05/19 08:57:31;;;;;;;18.67;9.07;;;;;;;18.64;100.00;101841.13;4974525;28;20065;-78
2022/05/19 09:00:24;;;;;;;16.40;9.35;;;;;;;18.69;100.00;101838.34;4990424;28;20050;-78
2022/05/19 09:03:14;;;;;;;14.90;8.82;;;;;;;18.75;100.00;101824.94;4978887;28;20057;-78
2022/05/19 09:06:00;;;;;;;21.08;9.75;;;;;;;18.84;100.00;101823.94;4993449;28;20042;-78
2022/05/19 09:08:49;;;;;;;16.42;9.20;;;;;;;18.93;100.00;101812.22;4958119;28;20160;-78
2022/05/19 09:11:21;;;;;;;22.65;10.02;;;;;;;19.01;100.00;101803.16;4956946;28;20492;-79
2022/05/19 09:14:00;;;;;;;14.73;10.02;;;;;;;19.13;100.00;101798.53;4982925;28;20076;-79
2022/05/19 09:16:32;;;;;;;16.98;9.95;;;;;;;19.24;100.00;101780.50;4955710;28;20188;-78
2022/05/19 09:19:06;;;;;;;15.43;12.15;;;;;;;19.36;100.00;101766.06;4965720;28;20062;-79
2022/05/19 09:21:37;;;;;;;16.40;11.43;;;;;;;19.51;100.00;101770.22;4975822;28;20049;-78
2022/05/19 09:24:06;;;;;;;18.67;13.75;;;;;;;19.67;100.00;101763.66;4937040;28;20057;-79
2022/05/19 09:26:50;;;;;;;22.83;16.13;;;;;;;19.82;100.00;101760.69;4980032;28;21182;-79
2022/05/19 09:29:22;;;;;;;20.05;13.93;;;;;;;19.97;100.00;101762.19;4962653;28;20278;-79
2022/05/19 09:32:03;;;;;;;20.65;16.23;;;;;;;20.10;100.00;101770.81;4962022;28;20556;-79
2022/05/19 09:34:37;;;;;;;19.90;14.60;;;;;;;20.25;100.00;101781.19;4966590;28;20418;-78
2022/05/19 09:37:36;;;;;;;19.58;13.75;;;;;;;20.40;100.00;101789.78;4963085;28;20038;-78
2022/05/19 09:40:21;;;;;;;23.15;12.43;;;;;;;20.51;100.00;101795.78;4983861;28;20046;-78
2022/05/19 09:43:33;;;;;;;18.08;14.32;;;;;;;20.69;100.00;101812.38;4968192;28;20058;-78
2022/05/19 09:46:07;;;;;;;16.58;14.48;;;;;;;20.82;100.00;101811.16;4966569;28;20548;-78
2022/05/19 09:48:42;;;;;;;23.75;14.27;;;;;;;20.87;100.00;101811.94;4967321;28;20051;-79
2022/05/19 09:51:15;;;;;;;20.30;14.98;;;;;;;20.95;100.00;101814.41;4956136;28;20141;-78
2022/05/19 09:53:54;;;;;;;26.67;16.67;;;;;;;21.09;100.00;101811.38;4943744;28;20283;-77
2022/05/19 09:56:33;;;;;;;27.50;16.98;;;;;;;21.14;100.00;101823.75;4959617;28;20610;-78
2022/05/19 09:59:14;;;;;;;24.17;16.60;;;;;;;21.18;100.00;101829.91;4969393;28;20152;-77
2022/05/19 10:01:46;;;;;;;21.95;15.75;;;;;;;21.25;100.00;101820.78;4969916;28;20058;-78
2022/05/19 10:04:24;;;;;;;19.92;15.05;;;;;;;21.27;100.00;101826.13;4972123;28;20329;-78
2022/05/19 10:07:05;;;;;;;21.73;13.57;;;;;;;21.26;100.00;101809.13;4967317;28;20042;-79
2022/05/19 10:09:42;;;;;;;23.40;15.45;;;;;;;21.30;100.00;101802.78;4944355;28;20267;-78
2022/05/19 10:12:14;;;;;;;21.60;13.82;;;;;;;21.41;100.00;101802.50;4963435;28;20054;-79
2022/05/19 10:14:43;;;;;;;20.13;15.48;;;;;;;21.52;100.00;101788.84;4949127;28;20042;-79
2022/05/19 10:17:36;;;;;;;27.77;16.70;;;;;;;21.54;100.00;101781.63;4997122;28;20042;-79
2022/05/19 10:20:23;;;;;;;17.60;13.80;;;;;;;21.60;100.00;101778.75;4946252;28;20508;-79
2022/05/19 10:23:41;;;;;;;25.10;16.17;;;;;;;21.65;100.00;101766.13;4965153;28;20052;-79
2022/05/19 10:26:49;;;;;;;24.58;17.48;;;;;;;21.72;100.00;101761.44;4969195;28;20055;-80
2022/05/19 10:32:26;;;;;;;21.02;16.45;;;;;;;21.91;100.00;101741.22;4986957;28;20548;-79
2022/05/19 10:35:14;;;;;;;19.83;14.55;;;;;;;22.01;100.00;101736.44;4965289;28;20050;-78
2022/05/19 10:37:53;;;;;;;18.55;13.18;;;;;;;22.15;100.00;101734.19;4948282;28;20042;-78
2022/05/19 10:40:34;;;;;;;15.23;13.65;;;;;;;22.34;100.00;101720.22;4979034;28;20050;-79
2022/05/19 10:43:42;;;;;;;15.88;14.10;;;;;;;22.54;100.00;101716.91;4974565;28;20697;-79
2022/05/19 10:46:14;;;;;;;14.48;12.57;;;;;;;22.77;100.00;101718.81;4984598;28;20050;-78
2022/05/19 10:49:10;;;;;;;14.82;9.70;;;;;;;22.97;100.00;101719.00;4983061;28;20054;-79
2022/05/19 10:52:06;;;;;;;18.20;9.65;;;;;;;23.17;100.00;101706.69;4983566;28;20376;-78
2022/05/19 10:54:58;;;;;;;16.63;11.57;;;;;;;23.31;99.58;101699.00;4961063;28;20509;-79
2022/05/19 10:57:41;;;;;;;11.38;9.32;;;;;;;23.46;99.61;101691.28;4960701;28;20500;-79
2022/05/19 11:00:36;;;;;;;10.20;8.82;;;;;;;23.59;98.24;101698.00;4979643;28;20055;-79
2022/05/19 11:03:17;;;;;;;;;;;;;;;23.68;93.43;101686.00;4954612;28;20057;-78
2022/05/19 11:05:56;;;;;;;;;;;;;;;23.77;93.15;101693.72;4968027;28;20409;-80
2022/05/19 11:08:57;;;;;;;10.93;8.80;;;;;;;23.82;96.43;101693.53;4982838;28;19936;-80
2022/05/19 11:11:35;;;;;;;11.82;9.02;;;;;;;23.86;96.15;101679.06;4980877;28;20259;-80
2022/05/19 11:14:17;;;;;;;8.60;7.07;;;;;;;23.91;96.28;101680.63;4955413;28;20046;-80
2022/05/19 11:16:55;;;;;;;8.48;6.93;;;;;;;23.97;93.80;101670.53;4950246;28;20055;-81
2022/05/19 11:19:33;;;;;;;9.70;7.25;;;;;;;24.04;94.92;101667.53;4988090;28;20234;-81
2022/05/19 11:22:12;;;;;;;8.68;6.60;;;;;;;24.08;92.24;101657.53;4965650;28;20047;-81
2022/05/19 11:27:49;;;;;;;7.85;7.07;;;;;;;23.88;92.16;101626.03;4982362;28;20058;-81
2022/05/19 11:30:29;;;;;;;10.13;7.40;;;;;;;23.83;93.30;101614.59;4947445;28;20583;-81
2022/05/19 11:33:05;;;;;;;14.20;9.95;;;;;;;23.86;92.76;101606.41;4985027;28;20050;-82
2022/05/19 11:35:39;;;;;;;11.30;9.02;;;;;;;23.99;93.46;101602.25;4954822;28;20049;-81
2022/05/19 11:38:26;;;;;;;12.00;9.25;;;;;;;24.13;93.75;101596.28;4990215;28;20049;-82
2022/05/19 11:41:23;;;;;;;12.65;10.23;;;;;;;24.22;92.48;101611.19;4985265;28;20535;-81
2022/05/19 11:44:16;;;;;;;20.52;12.07;;;;;;;24.22;91.26;101606.69;4965008;28;20053;-80
2022/05/19 11:46:55;;;;;;;11.38;10.13;;;;;;;24.23;91.87;101612.94;4983215;28;20062;-80
2022/05/19 11:55:42;;;;;;;13.38;11.90;;;;;;;24.09;91.97;101652.09;4965379;28;20050;-81